Time;durP1;ratioP1;P1;durP2;ratioP2;P2;SDS_P1;SDS_P2;PMS_P1;PMS_P2;Temp;Humidity;BMP_temperature;BMP_pressure;BME280_temperature;BME280_humidity;BME280_pressure;Samples;Min_cycle;Max_cycle;Signal;HPM_P1;HPM_P2
2023/09/04 00:03:30;;;;;;;2.17;1.97;;;14.20;99.90;;;;;;8264730;28;20195;-63
2023/09/04 00:07:31;;;;;;;3.33;1.97;;;14.20;99.90;;;;;;8241711;28;20199;-63
2023/09/04 00:11:31;;;;;;;2.10;1.90;;;14.10;99.90;;;;;;8261172;28;20281;-64
2023/09/04 00:15:32;;;;;;;2.20;2.00;;;14.00;99.90;;;;;;8260020;28;20243;-63
2023/09/04 00:19:34;;;;;;;3.73;2.20;;;13.90;1.00;;;;;;8243884;28;20195;-62
2023/09/04 00:23:34;;;;;;;2.27;2.03;;;13.80;1.00;;;;;;8248971;28;20657;-60
2023/09/04 00:27:35;;;;;;;3.10;2.37;;;13.70;1.00;;;;;;8241405;28;20187;-60
2023/09/04 00:31:36;;;;;;;2.87;2.00;;;13.60;1.00;;;;;;8246592;28;20214;-60
2023/09/04 00:35:39;;;;;;;4.23;2.37;;;13.50;1.00;;;;;;8242952;28;20286;-59
2023/09/04 00:39:40;;;;;;;2.70;2.50;;;13.40;1.00;;;;;;8256554;28;20187;-61
2023/09/04 00:43:41;;;;;;;2.30;2.03;;;13.30;1.00;;;;;;8257540;28;20214;-61
2023/09/04 00:47:44;;;;;;;2.40;2.20;;;13.20;1.00;;;;;;8236095;28;20198;-61
2023/09/04 00:51:45;;;;;;;3.57;2.40;;;13.00;42.80;;;;;;8255931;28;20215;-60
2023/09/04 00:55:48;;;;;;;4.33;2.50;;;13.00;99.90;;;;;;8257947;28;20429;-60
2023/09/04 00:59:49;;;;;;;4.47;2.60;;;12.90;99.90;;;;;;8257037;28;20208;-59
2023/09/04 01:03:50;;;;;;;4.77;3.00;;;12.90;1.00;;;;;;8242249;28;20212;-59
2023/09/04 01:07:51;;;;;;;3.07;2.50;;;12.90;99.90;;;;;;8241396;28;20241;-62
2023/09/04 01:12:17;;;;;;;3.20;2.90;;;12.80;1.00;;;;;;8253773;28;20246;-59
2023/09/04 01:16:18;;;;;;;3.53;2.37;;;12.70;1.00;;;;;;8249117;28;20215;-60
2023/09/04 01:20:27;;;;;;;3.63;2.60;;;12.60;1.00;;;;;;8255995;28;20233;-63
2023/09/04 01:24:28;;;;;;;4.00;2.90;;;12.60;99.90;;;;;;8258416;28;20227;-58
2023/09/04 01:28:43;;;;;;;2.80;2.27;;;12.50;99.90;;;;;;8258229;28;20592;-61
2023/09/04 01:32:51;;;;;;;3.53;2.80;;;12.60;99.90;;;;;;8254712;28;20222;-63
2023/09/04 01:36:54;;;;;;;2.77;2.47;;;12.70;99.90;;;;;;8259424;28;20286;-63
2023/09/04 01:40:54;;;;;;;3.50;2.97;;;12.60;99.90;;;;;;8244603;28;20192;-64
2023/09/04 01:44:55;;;;;;;3.77;2.80;;;12.70;99.90;;;;;;8253926;28;20187;-62
2023/09/04 01:48:56;;;;;;;3.30;3.00;;;12.60;99.90;;;;;;8256535;28;20190;-62
2023/09/04 01:52:57;;;;;;;3.93;2.80;;;12.60;99.90;;;;;;8236869;28;20820;-63
2023/09/04 01:56:57;;;;;;;3.37;2.87;;;12.70;1.00;;;;;;8257638;28;20187;-63
2023/09/04 02:00:58;;;;;;;3.27;2.80;;;12.70;99.90;;;;;;8241974;28;20283;-63
2023/09/04 02:04:59;;;;;;;2.37;2.17;;;12.60;99.90;;;;;;8255713;28;20245;-64
2023/09/04 02:09:00;;;;;;;2.60;2.40;;;12.60;1.00;;;;;;8244209;28;20210;-62
2023/09/04 02:13:00;;;;;;;3.03;2.60;;;12.60;1.00;;;;;;8256595;28;20223;-63
2023/09/04 02:17:01;;;;;;;3.73;3.37;;;12.60;99.90;;;;;;8242451;28;20187;-63
2023/09/04 02:21:03;;;;;;;5.73;3.37;;;12.60;99.90;;;;;;8254142;28;20184;-63
2023/09/04 02:25:04;;;;;;;4.13;2.80;;;12.70;24.80;;;;;;8248756;28;20282;-63
2023/09/04 02:29:05;;;;;;;2.70;2.50;;;12.70;1.00;;;;;;8245607;28;20195;-63
2023/09/04 02:33:06;;;;;;;5.20;3.13;;;12.60;1.00;;;;;;8243001;28;20212;-63
2023/09/04 02:37:06;;;;;;;3.13;2.70;;;12.70;1.00;;;;;;8242673;28;20304;-62
2023/09/04 02:41:08;;;;;;;3.00;2.30;;;12.60;1.00;;;;;;8245365;28;20198;-60
2023/09/04 02:45:09;;;;;;;3.03;2.70;;;12.60;1.00;;;;;;8252747;28;20229;-60
2023/09/04 02:49:10;;;;;;;5.17;2.63;;;12.60;15.40;;;;;;8276025;28;20188;-60
2023/09/04 02:53:10;;;;;;;2.93;2.60;;;12.50;1.00;;;;;;8249297;28;20408;-59
2023/09/04 02:57:11;;;;;;;4.07;3.67;;;12.40;1.00;;;;;;8258987;28;20191;-61
2023/09/04 03:01:16;;;;;;;4.13;3.47;;;12.30;99.90;;;;;;8259619;28;20266;-60
2023/09/04 03:05:17;;;;;;;4.87;3.37;;;12.20;1.00;;;;;;8247523;28;20215;-61
2023/09/04 03:09:17;;;;;;;7.37;3.40;;;12.20;1.00;;;;;;8256089;28;20207;-60
2023/09/04 03:13:18;;;;;;;4.53;3.90;;;12.10;99.90;;;;;;8260683;28;20246;-61
2023/09/04 03:17:19;;;;;;;3.57;2.90;;;12.00;1.00;;;;;;8245668;28;20187;-63
2023/09/04 03:21:20;;;;;;;3.37;3.03;;;11.90;1.00;;;;;;8249817;28;20277;-62
2023/09/04 03:25:20;;;;;;;4.53;3.30;;;11.90;99.90;;;;;;8260246;28;20203;-61
2023/09/04 03:29:21;;;;;;;2.97;2.50;;;11.80;99.90;;;;;;8258895;28;20254;-61
2023/09/04 03:33:22;;;;;;;3.67;3.13;;;11.70;99.90;;;;;;8256239;28;20215;-61
2023/09/04 03:37:23;;;;;;;4.03;3.40;;;11.70;1.00;;;;;;8244953;28;20175;-61
2023/09/04 03:41:25;;;;;;;4.10;2.73;;;11.60;13.40;;;;;;8256902;28;20249;-59
2023/09/04 03:45:32;;;;;;;4.27;3.27;;;11.60;1.00;;;;;;8246600;28;20291;-60
2023/09/04 03:49:33;;;;;;;3.77;3.10;;;11.60;99.90;;;;;;8256689;28;20191;-60
2023/09/04 03:53:37;;;;;;;4.47;3.27;;;11.60;99.90;;;;;;8256375;28;20216;-61
2023/09/04 03:57:39;;;;;;;4.13;3.20;;;11.60;99.90;;;;;;8260071;28;20193;-60
2023/09/04 04:01:40;;;;;;;4.00;3.60;;;11.60;99.90;;;;;;8243969;28;20230;-62
2023/09/04 04:05:40;;;;;;;14.07;3.20;;;11.50;99.90;;;;;;8261572;28;20186;-61
2023/09/04 04:09:43;;;;;;;4.93;4.00;;;11.50;99.90;;;;;;8257194;28;20210;-60
2023/09/04 04:13:44;;;;;;;3.90;3.40;;;11.50;99.90;;;;;;8256741;28;20214;-60
2023/09/04 04:17:44;;;;;;;5.00;3.90;;;11.50;99.90;;;;;;8258862;28;20201;-60
2023/09/04 04:21:45;;;;;;;6.07;4.23;;;11.50;99.90;;;;;;8245734;28;20207;-61
2023/09/04 04:25:50;;;;;;;4.83;3.77;;;11.60;99.90;;;;;;8258043;28;20291;-58
2023/09/04 04:29:54;;;;;;;4.93;3.87;;;11.50;99.90;;;;;;8239048;28;20201;-61
2023/09/04 04:33:55;;;;;;;5.27;3.73;;;11.50;99.90;;;;;;8250648;28;20254;-60
2023/09/04 04:37:56;;;;;;;4.43;4.00;;;11.50;99.90;;;;;;8246852;28;20189;-62
2023/09/04 04:41:57;;;;;;;4.57;3.60;;;11.60;99.90;;;;;;8245036;28;20195;-63
2023/09/04 04:45:57;;;;;;;4.33;3.03;;;11.70;99.90;;;;;;8248778;28;20244;-64
2023/09/04 04:49:58;;;;;;;4.63;4.07;;;11.70;99.90;;;;;;8252687;28;20264;-63
2023/09/04 04:53:59;;;;;;;5.40;3.73;;;11.70;99.90;;;;;;8242357;28;20215;-60
2023/09/04 04:58:00;;;;;;;5.17;3.63;;;11.70;99.90;;;;;;8256706;28;20191;-61
2023/09/04 05:02:00;;;;;;;5.40;4.23;;;11.70;99.90;;;;;;8240079;28;20186;-62
2023/09/04 05:06:02;;;;;;;5.80;4.10;;;11.80;99.90;;;;;;8258410;28;20813;-63
2023/09/04 05:10:03;;;;;;;5.00;3.80;;;11.90;99.90;;;;;;8241298;28;20235;-63
2023/09/04 05:14:03;;;;;;;3.83;3.47;;;12.00;99.90;;;;;;8254780;28;20230;-63
2023/09/04 05:18:04;;;;;;;7.20;4.30;;;12.20;99.90;;;;;;8245787;28;20298;-61
2023/09/04 05:22:05;;;;;;;5.63;4.00;;;12.50;99.90;;;;;;8253079;28;20227;-60
2023/09/04 05:26:06;;;;;;;5.87;3.77;;;13.00;99.90;;;;;;8247554;28;20219;-61
2023/09/04 05:30:07;;;;;;;3.80;3.50;;;13.40;99.90;;;;;;8259193;28;20188;-62
2023/09/04 05:34:07;;;;;;;4.37;3.70;;;13.70;99.90;;;;;;8250858;28;20211;-62
2023/09/04 05:38:09;;;;;;;3.93;2.63;;;14.00;1.00;;;;;;8256486;28;20333;-61
2023/09/04 05:42:09;;;;;;;6.13;2.60;;;14.30;31.20;;;;;;8254615;28;20191;-63
2023/09/04 05:46:10;;;;;;;5.53;3.43;;;14.70;1.00;;;;;;8269576;28;20722;-60
2023/09/04 05:50:11;;;;;;;5.80;2.40;;;15.00;1.00;;;;;;8256663;28;20256;-66
2023/09/04 05:54:12;;;;;;;4.53;2.80;;;15.20;55.50;;;;;;8246220;28;20223;-65
2023/09/04 05:58:13;;;;;;;4.60;2.90;;;15.20;1.00;;;;;;8243541;28;20219;-61
2023/09/04 06:02:14;;;;;;;4.03;2.90;;;15.20;6.90;;;;;;8251650;28;20199;-64
2023/09/04 06:06:15;;;;;;;3.10;2.37;;;15.40;32.70;;;;;;8254982;28;20180;-63
2023/09/04 06:10:17;;;;;;;4.67;2.80;;;15.60;1.00;;;;;;8246985;28;20649;-65
2023/09/04 06:14:17;;;;;;;5.37;2.80;;;15.80;1.00;;;;;;8257926;28;20319;-61
2023/09/04 06:18:19;;;;;;;3.13;2.30;;;15.60;99.90;;;;;;8260833;28;20187;-63
2023/09/04 06:22:19;;;;;;;4.50;3.00;;;15.60;1.00;;;;;;8261192;28;20202;-64
2023/09/04 06:26:20;;;;;;;6.47;2.73;;;15.60;1.00;;;;;;8258265;28;20203;-61
2023/09/04 06:30:21;;;;;;;3.70;2.73;;;15.50;1.00;;;;;;8257321;28;20273;-66
2023/09/04 06:34:22;;;;;;;4.43;2.30;;;15.40;1.00;;;;;;8259916;28;20223;-61
2023/09/04 06:38:24;;;;;;;3.87;2.90;;;15.20;1.00;;;;;;8247776;28;20176;-62
2023/09/04 06:42:25;;;;;;;5.40;2.60;;;15.20;1.00;;;;;;8257543;28;20184;-61
2023/09/04 06:46:25;;;;;;;3.30;2.63;;;15.30;24.10;;;;;;8262713;28;20309;-62
2023/09/04 06:50:26;;;;;;;2.83;2.53;;;15.60;1.00;;;;;;8251550;28;20188;-61
2023/09/04 06:54:27;;;;;;;2.87;2.30;;;15.70;1.00;;;;;;8262894;28;20266;-61
2023/09/04 06:58:28;;;;;;;3.77;2.80;;;15.90;1.00;;;;;;8244922;28;20180;-65
2023/09/04 07:02:29;;;;;;;3.27;2.37;;;16.00;1.00;;;;;;8261037;28;20192;-63
2023/09/04 07:06:30;;;;;;;3.43;2.20;;;16.20;1.00;;;;;;8246711;28;20194;-62
2023/09/04 07:10:32;;;;;;;2.53;2.10;;;16.40;99.90;;;;;;8240466;28;20214;-64
2023/09/04 07:14:32;;;;;;;3.00;2.07;;;16.40;99.90;;;;;;8246740;28;20212;-62
2023/09/04 07:18:33;;;;;;;3.20;2.00;;;16.50;99.90;;;;;;8250860;28;20520;-63
2023/09/04 07:22:34;;;;;;;2.73;2.20;;;16.60;99.90;;;;;;8244956;28;20195;-63
2023/09/04 07:26:35;;;;;;;2.33;2.03;;;16.70;99.90;;;;;;8245941;28;20203;-61
2023/09/04 07:30:35;;;;;;;2.37;1.50;;;16.90;99.90;;;;;;8258129;28;20188;-64
2023/09/04 07:34:36;;;;;;;4.23;1.90;;;17.20;99.90;;;;;;8259393;28;20204;-62
2023/09/04 07:38:37;;;;;;;2.30;1.97;;;17.30;99.90;;;;;;8260586;28;20198;-62
2023/09/04 07:42:40;;;;;;;2.13;1.70;;;17.60;99.90;;;;;;8244849;28;20187;-61
2023/09/04 07:46:41;;;;;;;1.63;1.30;;;17.70;99.90;;;;;;8260325;28;20194;-62
2023/09/04 07:50:42;;;;;;;6.63;1.73;;;17.90;99.90;;;;;;8244573;28;20188;-62
2023/09/04 07:54:44;;;;;;;2.77;1.73;;;18.00;99.90;;;;;;8243104;28;20210;-62
2023/09/04 07:58:45;;;;;;;3.57;1.63;;;18.00;99.90;;;;;;8242980;28;20187;-63
2023/09/04 08:02:46;;;;;;;2.57;1.50;;;18.20;99.90;;;;;;8248486;28;20576;-65
2023/09/04 08:06:47;;;;;;;2.13;1.57;;;18.30;68.00;;;;;;8246736;28;20183;-61
2023/09/04 08:10:50;;;;;;;3.90;1.87;;;18.40;99.90;;;;;;8246573;28;20203;-66
2023/09/04 08:14:51;;;;;;;2.53;1.63;;;18.50;99.90;;;;;;8251441;28;20298;-63
2023/09/04 08:18:52;;;;;;;1.70;1.30;;;18.60;99.90;;;;;;8241964;28;20190;-62
2023/09/04 08:22:53;;;;;;;2.10;1.43;;;18.90;96.80;;;;;;8256878;28;20195;-64
2023/09/04 08:26:54;;;;;;;2.40;1.80;;;18.90;84.20;;;;;;8245670;28;20322;-62
2023/09/04 08:30:55;;;;;;;2.63;1.40;;;19.00;94.70;;;;;;8256012;28;20194;-62
2023/09/04 08:34:56;;;;;;;2.13;1.40;;;19.10;69.30;;;;;;8246484;28;20311;-64
2023/09/04 08:38:56;;;;;;;1.70;1.33;;;19.20;55.60;;;;;;8250391;28;20254;-63
2023/09/04 08:42:58;;;;;;;2.80;1.40;;;19.30;56.20;;;;;;8257655;28;20187;-61
2023/09/04 08:46:59;;;;;;;2.27;1.30;;;19.30;14.30;;;;;;8241720;28;20179;-62
2023/09/04 08:51:02;;;;;;;5.20;1.10;;;19.40;20.90;;;;;;8240781;28;20199;-64
2023/09/04 08:55:05;;;;;;;2.30;1.03;;;19.60;19.80;;;;;;8252528;28;20187;-64
2023/09/04 08:59:05;;;;;;;1.57;0.93;;;20.10;1.00;;;;;;8243250;28;20267;-64
2023/09/04 09:03:07;;;;;;;1.80;1.40;;;20.30;1.00;;;;;;8255458;28;20242;-63
2023/09/04 09:07:11;;;;;;;2.70;1.20;;;20.50;1.00;;;;;;8245598;28;20191;-63
2023/09/04 09:11:13;;;;;;;1.33;1.00;;;20.90;1.00;;;;;;8255428;28;20209;-63
2023/09/04 09:15:17;;;;;;;2.20;1.13;;;21.50;1.00;;;;;;8248444;28;20407;-64
2023/09/04 09:19:21;;;;;;;2.10;1.17;;;22.00;1.00;;;;;;8237058;28;20203;-64
2023/09/04 09:23:21;;;;;;;2.70;1.30;;;21.80;1.00;;;;;;8258372;28;20663;-65
2023/09/04 09:27:24;;;;;;;3.37;1.10;;;21.40;1.00;;;;;;8242443;28;20195;-63
2023/09/04 09:31:25;;;;;;;2.13;1.00;;;20.70;1.00;;;;;;8254049;28;20210;-65
2023/09/04 09:35:30;;;;;;;2.00;0.90;;;20.50;1.00;;;;;;8257307;28;20187;-61
2023/09/04 09:39:33;;;;;;;1.63;1.00;;;20.80;1.00;;;;;;8254924;28;20331;-62
2023/09/04 09:43:34;;;;;;;2.73;1.07;;;21.10;1.00;;;;;;8257291;28;20503;-62
2023/09/04 09:47:35;;;;;;;3.27;1.10;;;21.30;1.00;;;;;;8242335;28;20191;-63
2023/09/04 09:51:37;;;;;;;2.30;0.90;;;20.90;1.00;;;;;;8244853;28;20211;-62
2023/09/04 09:55:38;;;;;;;1.43;1.00;;;20.50;1.00;;;;;;8265243;28;20176;-61
2023/09/04 09:59:46;;;;;;;1.53;1.10;;;20.60;1.00;;;;;;8242457;28;20226;-64
2023/09/04 10:03:47;;;;;;;2.83;1.30;;;21.20;1.00;;;;;;8250023;28;20199;-62
2023/09/04 10:07:53;;;;;;;1.50;0.87;;;22.00;1.00;;;;;;8247906;28;20211;-62
2023/09/04 10:12:04;;;;;;;2.30;1.13;;;22.80;1.00;;;;;;8245409;28;20207;-64
2023/09/04 10:16:14;;;;;;;2.80;1.20;;;22.50;1.00;;;;;;8243090;28;20188;-65
2023/09/04 10:20:15;;;;;;;2.23;1.40;;;21.70;1.00;;;;;;8261067;28;20191;-63
2023/09/04 10:24:23;;;;;;;2.20;1.30;;;21.30;1.00;;;;;;8260074;28;20250;-63
2023/09/04 10:28:31;;;;;;;2.70;1.07;;;21.10;1.00;;;;;;8258872;28;20237;-64
2023/09/04 10:32:34;;;;;;;6.03;1.43;;;20.90;1.00;;;;;;8251405;28;20793;-62
2023/09/04 10:36:38;;;;;;;2.03;1.13;;;21.10;1.00;;;;;;8252245;28;20235;-63
2023/09/04 10:40:40;;;;;;;2.07;1.27;;;21.40;1.00;;;;;;8243808;28;20191;-65
2023/09/04 10:44:46;;;;;;;1.90;0.90;;;21.70;1.00;;;;;;8237485;28;20291;-64
2023/09/04 10:48:49;;;;;;;1.60;0.90;;;22.10;1.00;;;;;;8258299;28;20191;-63
2023/09/04 10:52:50;;;;;;;1.77;1.13;;;22.50;1.00;;;;;;8259154;28;20227;-63
2023/09/04 10:57:15;;;;;;;1.63;0.90;;;22.90;1.00;;;;;;8258031;28;20195;-63
2023/09/04 11:01:42;;;;;;;1.20;1.07;;;23.00;1.00;;;;;;8259912;28;20184;-66
2023/09/04 11:06:05;;;;;;;3.63;1.03;;;22.90;1.00;;;;;;8256367;28;20227;-61
2023/09/04 11:10:14;;;;;;;3.10;1.10;;;22.40;1.00;;;;;;8259094;28;20518;-63
2023/09/04 11:14:15;;;;;;;2.23;1.13;;;22.50;1.00;;;;;;8242263;28;20207;-63
2023/09/04 11:18:18;;;;;;;4.03;1.20;;;23.40;1.00;;;;;;8256194;28;20356;-64
2023/09/04 11:22:21;;;;;;;2.30;0.90;;;24.00;1.00;;;;;;8258574;28;20262;-64
2023/09/04 11:26:21;;;;;;;0.90;0.80;;;24.10;1.00;;;;;;8255421;28;20241;-63
2023/09/04 11:30:22;;;;;;;1.33;0.90;;;23.70;1.00;;;;;;8257868;28;20192;-62
2023/09/04 11:34:23;;;;;;;1.50;1.10;;;23.50;1.00;;;;;;8261032;28;20801;-63
2023/09/04 11:38:26;;;;;;;2.87;0.93;;;23.10;1.00;;;;;;8250116;28;20191;-63
2023/09/04 11:42:27;;;;;;;1.23;1.00;;;22.80;1.00;;;;;;8241480;28;20199;-63
2023/09/04 11:46:28;;;;;;;1.17;0.70;;;22.90;1.00;;;;;;8258919;28;20562;-64
2023/09/04 11:50:30;;;;;;;1.63;1.03;;;23.50;1.00;;;;;;8257319;28;20198;-62
2023/09/04 11:54:31;;;;;;;1.23;0.90;;;24.10;1.00;;;;;;8238950;28;20270;-67
2023/09/04 11:58:33;;;;;;;1.27;1.00;;;24.40;1.00;;;;;;8251597;28;20214;-62
2023/09/04 12:02:36;;;;;;;2.57;1.10;;;23.80;1.00;;;;;;8263244;28;20560;-63
2023/09/04 12:06:37;;;;;;;2.50;1.27;;;23.40;1.00;;;;;;8260987;28;20381;-64
2023/09/04 12:10:38;;;;;;;1.70;1.13;;;23.10;1.00;;;;;;8243056;28;20215;-63
2023/09/04 12:14:45;;;;;;;1.87;0.80;;;23.00;1.00;;;;;;8246530;28;20215;-64
2023/09/04 12:18:48;;;;;;;1.37;0.83;;;23.50;1.00;;;;;;8242498;28;20247;-64
2023/09/04 12:22:57;;;;;;;1.50;0.90;;;24.00;1.00;;;;;;8247595;28;20198;-64
2023/09/04 12:26:58;;;;;;;2.23;1.13;;;23.90;1.00;;;;;;8244345;28;20223;-63
2023/09/04 12:30:59;;;;;;;1.87;1.20;;;24.00;1.00;;;;;;8257828;28;20378;-62
2023/09/04 12:35:01;;;;;;;2.13;0.83;;;23.80;1.00;;;;;;8246186;28;20215;-64
2023/09/04 12:39:02;;;;;;;2.00;1.00;;;23.60;1.00;;;;;;8257434;28;20255;-63
2023/09/04 12:43:03;;;;;;;4.23;1.53;;;23.50;1.00;;;;;;8245693;28;20196;-62
2023/09/04 12:47:04;;;;;;;0.90;0.70;;;23.70;1.00;;;;;;8252557;28;20210;-64
2023/09/04 12:51:04;;;;;;;1.60;1.10;;;24.10;1.00;;;;;;8245713;28;20263;-64
2023/09/04 12:55:05;;;;;;;2.73;0.90;;;24.40;1.00;;;;;;8242025;28;20306;-63
2023/09/04 12:59:06;;;;;;;1.10;0.87;;;24.40;1.00;;;;;;8243132;28;20516;-65
2023/09/04 13:03:07;;;;;;;1.27;0.65;;;24.30;1.00;;;;;;8245198;28;20191;-64
2023/09/04 13:07:08;;;;;;;1.63;1.00;;;24.60;1.00;;;;;;8243511;28;20202;-64
2023/09/04 13:11:09;;;;;;;1.38;1.00;;;24.50;1.00;;;;;;8236302;28;20215;-63
2023/09/04 13:15:11;;;;;;;1.63;0.93;;;24.60;1.00;;;;;;8250094;28;20240;-63
2023/09/04 13:19:13;;;;;;;2.08;1.00;;;24.50;1.00;;;;;;8240341;28;20203;-63
2023/09/04 13:23:14;;;;;;;3.35;0.85;;;24.50;1.00;;;;;;8252683;28;20184;-64
2023/09/04 13:27:15;;;;;;;2.27;1.10;;;24.00;1.00;;;;;;8240364;28;20236;-64
2023/09/04 13:31:16;;;;;;;1.50;1.10;;;23.60;1.00;;;;;;8238890;28;20204;-63
2023/09/04 13:35:16;;;;;;;1.40;0.97;;;23.40;1.00;;;;;;8253782;28;20227;-63
2023/09/04 13:39:17;;;;;;;2.33;1.07;;;23.50;1.00;;;;;;8241376;28;20191;-61
2023/09/04 13:43:18;;;;;;;1.53;1.13;;;23.30;1.00;;;;;;8253580;28;20198;-64
2023/09/04 13:47:24;;;;;;;1.40;1.20;;;23.30;1.00;;;;;;8244701;28;20183;-62
2023/09/04 13:51:25;;;;;;;2.20;0.93;;;23.50;1.00;;;;;;8237399;28;20183;-63
2023/09/04 13:55:26;;;;;;;2.27;0.90;;;23.50;1.00;;;;;;8235236;28;20187;-62
2023/09/04 13:59:27;;;;;;;2.10;1.10;;;23.70;1.00;;;;;;8252850;28;20192;-62
2023/09/04 14:03:27;;;;;;;1.30;0.67;;;23.90;1.00;;;;;;8245398;28;20199;-63
2023/09/04 14:07:29;;;;;;;4.03;1.13;;;23.90;1.00;;;;;;8256767;28;20271;-61
2023/09/04 14:11:29;;;;;;;2.20;1.00;;;24.00;1.00;;;;;;8250488;28;20242;-61
2023/09/04 14:15:30;;;;;;;1.33;1.07;;;23.90;1.00;;;;;;8246661;28;20219;-63
2023/09/04 14:19:31;;;;;;;1.40;1.10;;;23.50;1.00;;;;;;8252114;28;20201;-63
2023/09/04 14:23:32;;;;;;;3.20;1.00;;;23.40;1.00;;;;;;8254625;28;20203;-61
2023/09/04 14:27:33;;;;;;;2.23;1.10;;;23.30;1.00;;;;;;8243545;28;20208;-63
2023/09/04 14:31:34;;;;;;;1.80;1.00;;;23.20;1.00;;;;;;8256124;28;20476;-62
2023/09/04 14:35:35;;;;;;;2.97;1.23;;;23.30;1.00;;;;;;8253915;28;20187;-64
2023/09/04 14:39:37;;;;;;;1.73;1.00;;;23.20;1.00;;;;;;8241380;28;20195;-63
2023/09/04 14:43:38;;;;;;;1.37;1.17;;;23.20;1.00;;;;;;8246248;28;20198;-63
2023/09/04 14:47:39;;;;;;;1.03;0.80;;;23.30;1.00;;;;;;8240999;28;20194;-63
2023/09/04 14:51:40;;;;;;;2.20;1.30;;;23.30;1.00;;;;;;8261654;28;20211;-64
2023/09/04 14:55:40;;;;;;;2.27;1.40;;;23.40;1.00;;;;;;8256969;28;20249;-63
2023/09/04 14:59:41;;;;;;;2.93;1.20;;;23.40;1.00;;;;;;8253347;28;20192;-62
2023/09/04 15:03:43;;;;;;;2.10;1.30;;;23.30;1.00;;;;;;8258635;28;20334;-64
2023/09/04 15:07:44;;;;;;;2.20;1.13;;;22.90;1.00;;;;;;8243067;28;20192;-62
2023/09/04 15:11:45;;;;;;;1.93;1.10;;;22.80;1.00;;;;;;8250363;28;20220;-63
2023/09/04 15:15:46;;;;;;;3.30;1.00;;;22.90;1.00;;;;;;8245714;28;20192;-63
2023/09/04 15:19:47;;;;;;;1.43;1.30;;;23.10;1.00;;;;;;8258356;28;20191;-65
2023/09/04 15:23:48;;;;;;;1.10;1.00;;;23.40;1.00;;;;;;8256620;28;20574;-63
2023/09/04 15:27:48;;;;;;;3.57;1.30;;;23.50;1.00;;;;;;8244052;28;20454;-65
2023/09/04 15:31:49;;;;;;;1.30;1.00;;;23.70;1.00;;;;;;8259639;28;20207;-64
2023/09/04 15:35:52;;;;;;;1.87;1.10;;;23.90;1.00;;;;;;8252827;28;20321;-64
2023/09/04 15:39:53;;;;;;;1.30;1.20;;;24.00;1.00;;;;;;8255598;28;20218;-64
2023/09/04 15:43:53;;;;;;;1.80;1.50;;;23.90;1.00;;;;;;8259670;28;20201;-62
2023/09/04 15:47:54;;;;;;;2.70;1.00;;;24.20;1.00;;;;;;8258178;28;20338;-65
2023/09/04 15:51:55;;;;;;;2.23;1.13;;;24.30;1.00;;;;;;8257305;28;20218;-62
2023/09/04 15:55:56;;;;;;;3.40;1.20;;;24.50;1.00;;;;;;8247872;28;20192;-62
2023/09/04 15:59:56;;;;;;;2.60;1.10;;;24.40;1.00;;;;;;8256961;28;20278;-65
2023/09/04 16:03:57;;;;;;;3.20;1.57;;;24.30;1.00;;;;;;8247337;28;20211;-63
2023/09/04 16:07:58;;;;;;;2.47;1.50;;;24.20;1.00;;;;;;8261566;28;20274;-64
2023/09/04 16:11:59;;;;;;;2.27;1.20;;;23.90;1.00;;;;;;8259052;28;20321;-64
2023/09/04 16:16:00;;;;;;;1.60;1.10;;;23.70;1.00;;;;;;8261276;28;20198;-64
2023/09/04 16:20:00;;;;;;;1.50;1.10;;;23.40;1.00;;;;;;8242595;28;20198;-63
2023/09/04 16:24:01;;;;;;;3.57;1.50;;;23.30;1.00;;;;;;8246462;28;20286;-63
2023/09/04 16:28:02;;;;;;;2.43;1.83;;;23.10;1.00;;;;;;8256113;28;20200;-64
2023/09/04 16:32:03;;;;;;;1.60;1.40;;;23.00;1.00;;;;;;8241485;28;20203;-64
2023/09/04 16:36:05;;;;;;;1.67;1.50;;;22.90;1.00;;;;;;8255806;28;20194;-64
2023/09/04 16:40:06;;;;;;;2.60;1.60;;;22.80;1.00;;;;;;8252019;28;20194;-64
2023/09/04 16:44:07;;;;;;;2.37;1.23;;;22.70;1.00;;;;;;8246140;28;20196;-63
2023/09/04 16:48:08;;;;;;;2.27;1.40;;;22.60;1.00;;;;;;8256903;28;20195;-63
2023/09/04 16:52:09;;;;;;;3.33;1.97;;;22.40;1.00;;;;;;8253436;28;20207;-64
2023/09/04 16:56:09;;;;;;;2.47;1.80;;;22.30;1.00;;;;;;8244072;28;20184;-63
2023/09/04 17:00:11;;;;;;;2.07;1.57;;;22.10;1.00;;;;;;8255829;28;20198;-64
2023/09/04 17:04:12;;;;;;;2.40;1.00;;;21.90;4.50;;;;;;8255881;28;20198;-64
2023/09/04 17:08:12;;;;;;;3.37;1.30;;;21.70;20.30;;;;;;8241922;28;20282;-64
2023/09/04 17:12:13;;;;;;;5.83;3.03;;;21.50;63.30;;;;;;8244463;28;20219;-64
2023/09/04 17:16:14;;;;;;;5.03;2.30;;;21.30;99.90;;;;;;8254790;28;20194;-65
2023/09/04 17:20:15;;;;;;;2.70;1.83;;;21.00;99.90;;;;;;8242746;28;20215;-64
2023/09/04 17:24:17;;;;;;;1.80;1.50;;;20.80;99.90;;;;;;8254187;28;20253;-65
2023/09/04 17:28:17;;;;;;;1.50;1.37;;;20.50;99.90;;;;;;8239767;28;20196;-64
2023/09/04 17:32:18;;;;;;;1.40;1.30;;;20.20;99.90;;;;;;8255319;28;20213;-62
2023/09/04 17:36:19;;;;;;;1.20;1.10;;;19.80;99.90;;;;;;8241877;28;20412;-62
2023/09/04 17:40:22;;;;;;;1.97;1.40;;;19.50;99.90;;;;;;8240477;28;20198;-64
2023/09/04 17:44:23;;;;;;;2.00;1.27;;;19.20;1.00;;;;;;8241188;28;20198;-64
2023/09/04 17:48:24;;;;;;;1.57;1.47;;;18.90;1.00;;;;;;8244564;28;20192;-64
2023/09/04 17:52:24;;;;;;;1.47;1.37;;;18.70;1.00;;;;;;8238177;28;20238;-63
2023/09/04 17:56:25;;;;;;;1.60;1.30;;;18.50;99.90;;;;;;8244579;28;20192;-65
2023/09/04 18:00:29;;;;;;;3.40;1.47;;;18.30;99.90;;;;;;8247263;28;20238;-61
2023/09/04 18:04:30;;;;;;;2.50;1.97;;;18.10;99.90;;;;;;8242994;28;20243;-61
2023/09/04 18:08:31;;;;;;;3.10;1.60;;;17.90;99.90;;;;;;8255527;28;20207;-64
2023/09/04 18:12:32;;;;;;;2.47;1.73;;;17.80;1.00;;;;;;8238346;28;20250;-63
2023/09/04 18:16:32;;;;;;;1.70;1.60;;;17.60;1.00;;;;;;8247270;28;20201;-62
2023/09/04 18:20:33;;;;;;;2.13;1.90;;;17.40;25.00;;;;;;8257457;28;20195;-63
2023/09/04 18:24:34;;;;;;;2.70;1.87;;;17.30;99.90;;;;;;8261230;28;20495;-62
2023/09/04 18:28:35;;;;;;;1.83;1.73;;;17.20;99.90;;;;;;8260153;28;20554;-61
2023/09/04 18:32:35;;;;;;;3.77;2.27;;;17.00;1.00;;;;;;8260806;28;20242;-61
2023/09/04 18:36:36;;;;;;;2.27;2.07;;;16.90;99.90;;;;;;8247214;28;20191;-63
2023/09/04 18:40:38;;;;;;;3.03;2.03;;;16.80;99.90;;;;;;8244912;28;20259;-61
2023/09/04 18:44:38;;;;;;;2.83;1.67;;;16.80;99.90;;;;;;8245479;28;20226;-64
2023/09/04 18:48:39;;;;;;;3.87;1.57;;;16.60;1.00;;;;;;8247086;28;20207;-63
2023/09/04 18:52:40;;;;;;;2.77;2.00;;;16.50;1.00;;;;;;8262887;28;21466;-62
2023/09/04 18:56:41;;;;;;;2.23;2.03;;;16.40;99.90;;;;;;8259204;28;20314;-63
2023/09/04 19:00:42;;;;;;;2.00;1.80;;;16.30;99.90;;;;;;8256134;28;20192;-61
2023/09/04 19:04:43;;;;;;;2.57;1.80;;;16.20;1.00;;;;;;8258725;28;20196;-61
2023/09/04 19:08:44;;;;;;;2.40;2.20;;;16.20;80.10;;;;;;8246699;28;20250;-64
2023/09/04 19:12:44;;;;;;;2.97;2.33;;;16.10;99.90;;;;;;8259731;28;20278;-62
2023/09/04 19:16:45;;;;;;;2.00;1.80;;;16.00;99.90;;;;;;8259859;28;20187;-61
2023/09/04 19:20:48;;;;;;;1.80;1.70;;;15.90;99.90;;;;;;8244402;28;20256;-63
2023/09/04 19:24:49;;;;;;;2.80;2.10;;;15.80;1.00;;;;;;8244583;28;20269;-62
2023/09/04 19:28:50;;;;;;;2.33;2.13;;;15.60;99.90;;;;;;8259862;28;20223;-62
2023/09/04 19:32:51;;;;;;;2.03;1.63;;;15.60;1.00;;;;;;8261647;28;20210;-61
2023/09/04 19:36:52;;;;;;;2.47;2.10;;;15.50;99.90;;;;;;8254979;28;20274;-61
2023/09/04 19:40:53;;;;;;;3.27;2.60;;;15.50;1.00;;;;;;8242241;28;20293;-65
2023/09/04 19:44:53;;;;;;;2.30;2.10;;;15.40;99.90;;;;;;8250128;28;20208;-60
2023/09/04 19:48:54;;;;;;;2.80;2.60;;;15.30;99.90;;;;;;8249688;28;20286;-62
2023/09/04 19:52:55;;;;;;;2.93;2.50;;;15.20;99.90;;;;;;8256009;28;20222;-62
2023/09/04 19:56:56;;;;;;;2.13;1.93;;;15.20;1.00;;;;;;8245868;28;20203;-59
2023/09/04 20:00:58;;;;;;;2.33;2.13;;;15.10;75.80;;;;;;8251284;28;20200;-59
2023/09/04 20:04:59;;;;;;;2.63;2.37;;;15.00;99.90;;;;;;8243685;28;20227;-61
2023/09/04 20:09:00;;;;;;;4.33;2.33;;;15.00;1.00;;;;;;8248870;28;20322;-60
2023/09/04 20:13:00;;;;;;;3.97;2.73;;;14.90;99.90;;;;;;8240627;28;20273;-61
2023/09/04 20:17:02;;;;;;;2.60;2.40;;;14.80;1.00;;;;;;8258743;28;20286;-60
2023/09/04 20:21:03;;;;;;;3.13;2.30;;;14.80;99.90;;;;;;8261282;28;20197;-60
2023/09/04 20:25:05;;;;;;;3.03;2.73;;;14.70;99.90;;;;;;8257114;28;20198;-60
2023/09/04 20:29:06;;;;;;;3.47;2.70;;;14.60;1.00;;;;;;8251542;28;20206;-60
2023/09/04 20:33:07;;;;;;;3.57;3.20;;;14.50;1.00;;;;;;8257970;28;20219;-58
2023/09/04 20:37:08;;;;;;;4.63;2.77;;;14.40;99.90;;;;;;8240180;28;20198;-60
2023/09/04 20:41:08;;;;;;;2.77;2.57;;;14.40;99.90;;;;;;8257811;28;20195;-59
2023/09/04 20:45:09;;;;;;;2.73;2.23;;;14.30;1.00;;;;;;8257294;28;20187;-59
2023/09/04 20:49:10;;;;;;;3.00;2.33;;;14.20;1.00;;;;;;8256954;28;20195;-61
2023/09/04 20:53:11;;;;;;;3.97;2.40;;;14.20;13.50;;;;;;8257634;28;20269;-61
2023/09/04 20:57:12;;;;;;;3.53;2.67;;;14.10;99.90;;;;;;8256847;28;20278;-59
2023/09/04 21:01:13;;;;;;;2.43;2.23;;;14.10;99.90;;;;;;8242504;28;20345;-61
2023/09/04 21:05:13;;;;;;;2.70;2.50;;;14.00;99.90;;;;;;8256682;28;20198;-61
2023/09/04 23:23:09;;;;;;;4.20;3.40;;;12.10;99.90;;;;;;8259841;28;20207;-63